| Date | Time | Temp. (oF) | Dew Point (oF) | Rel. Hum. (%) | Press. (in.) | Wind Dir. | Wind Speed (mph) | Hourly Rainfall (in.) |
|
|---|---|---|---|---|---|---|---|---|---|
| 1 | 03/18 | 00:00 | 41 | 32 | 72 | 29.92 | SW | 0 | 0.00 |
| 2 | 03/17 | 23:00 | 44 | 30 | 58 | 29.92 | SW | 0 | 0.00 |
| 3 | 03/17 | 22:00 | 47 | 29 | 51 | 29.92 | SW | 0 | 0.00 |
| 4 | 03/17 | 21:00 | 50 | 28 | 44 | 29.92 | WSW | 0 | 0.00 |
| 5 | 03/17 | 20:00 | 57 | 27 | 33 | 29.91 | WSW | 0 | 0.00 |
| 6 | 03/17 | 19:00 | 61 | 25 | 26 | 29.91 | WSW | 0 | 0.00 |
| 7 | 03/17 | 18:00 | 65 | 27 | 25 | 29.91 | WSW | 0 | 0.00 |
| 8 | 03/17 | 17:00 | 64 | 27 | 25 | 29.92 | WNW | 0 | 0.00 |
| 9 | 03/17 | 16:00 | 65 | 32 | 30 | 29.94 | WNW | 0 | 0.00 |
| 10 | 03/17 | 15:00 | 63 | 28 | 27 | 29.95 | SW | 0 | 0.00 |
| 11 | 03/17 | 14:00 | 62 | 29 | 29 | 29.99 | N | 6 | 0.00 |
| 12 | 03/17 | 13:00 | 61 | 32 | 35 | 30.02 | NE | 0 | 0.00 |
| 13 | 03/17 | 12:00 | 60 | 32 | 36 | 30.04 | NNE | 0 | 0.00 |
| 14 | 03/17 | 11:00 | 55 | 32 | 42 | 30.06 | N | 0 | 0.00 |
| 15 | 03/17 | 10:00 | 51 | 35 | 56 | 30.07 | N | 0 | 0.00 |
| 16 | 03/17 | 09:00 | 40 | 38 | 95 | 30.07 | SW | 0 | 0.00 |
| 17 | 03/17 | 08:00 | 33 | 31 | 96 | 30.07 | WSW | 0 | 0.00 |
| 18 | 03/17 | 07:00 | 32 | 30 | 94 | 30.05 | WNW | 0 | 0.00 |
| 19 | 03/17 | 06:00 | 33 | 31 | 94 | 30.05 | WNW | 0 | 0.00 |
| 20 | 03/17 | 05:00 | 33 | 30 | 91 | 30.03 | NW | 0 | 0.00 |
| 21 | 03/17 | 04:00 | 35 | 31 | 88 | 30.02 | NW | 0 | 0.00 |
| 22 | 03/17 | 03:00 | 37 | 33 | 86 | 30.03 | NW | 0 | 0.00 |
| 23 | 03/17 | 02:00 | 38 | 33 | 83 | 30.03 | NW | 0 | 0.00 |
| 24 | 03/17 | 01:00 | 40 | 33 | 77 | 30.03 | NW | 0 | 0.00 |